Terminal Aerodrome Forecast
Issued by NWS

Home | Current Version | Previous Version | Graphics & Text | Print | Product List | Glossary On
Versions: 1 2 3 4 5 6 7 8 9 10 11 12 13 14 15
000
FTUS43 KTOP 151100
TAFMHK
TAF
KMHK 151126Z 1512/1612 24005KT P6SM SKC
     FM151900 20015G23KT P6SM FEW200
     FM160100 19011KT P6SM SCT200
     FM160400 20016G24KT P6SM BKN200=

USA.gov is the U.S. government's official web portal to all federal, state and local government web resources and services.